sensor_id;sensor_type;location;lat;lon;timestamp;temperature;humidity
21540;DHT22;10931;52.164;5.518;2023-05-16T00:00:24;23.20;59.00
21540;DHT22;10931;52.164;5.518;2023-05-16T00:02:50;23.20;59.00
21540;DHT22;10931;52.164;5.518;2023-05-16T00:05:17;23.10;58.90
21540;DHT22;10931;52.164;5.518;2023-05-16T00:07:47;23.10;58.90
21540;DHT22;10931;52.164;5.518;2023-05-16T00:10:13;23.10;59.00
21540;DHT22;10931;52.164;5.518;2023-05-16T00:12:41;23.10;59.00
21540;DHT22;10931;52.164;5.518;2023-05-16T00:15:14;23.10;59.00
21540;DHT22;10931;52.164;5.518;2023-05-16T00:17:49;23.10;59.00
21540;DHT22;10931;52.164;5.518;2023-05-16T00:20:15;23.10;59.00
21540;DHT22;10931;52.164;5.518;2023-05-16T00:22:55;23.10;59.00
21540;DHT22;10931;52.164;5.518;2023-05-16T00:25:20;23.10;59.00
21540;DHT22;10931;52.164;5.518;2023-05-16T00:27:46;23.10;59.10
21540;DHT22;10931;52.164;5.518;2023-05-16T00:30:13;23.10;59.10
21540;DHT22;10931;52.164;5.518;2023-05-16T00:32:39;23.00;59.00
21540;DHT22;10931;52.164;5.518;2023-05-16T00:35:06;23.00;59.10
21540;DHT22;10931;52.164;5.518;2023-05-16T00:37:32;23.00;59.10
21540;DHT22;10931;52.164;5.518;2023-05-16T00:39:58;23.00;59.10
21540;DHT22;10931;52.164;5.518;2023-05-16T00:42:23;23.00;59.10
21540;DHT22;10931;52.164;5.518;2023-05-16T00:44:53;23.00;59.10
21540;DHT22;10931;52.164;5.518;2023-05-16T00:47:19;23.00;59.10
21540;DHT22;10931;52.164;5.518;2023-05-16T00:49:44;23.00;59.10
21540;DHT22;10931;52.164;5.518;2023-05-16T00:52:10;23.00;59.10
21540;DHT22;10931;52.164;5.518;2023-05-16T00:54:36;23.00;59.10
21540;DHT22;10931;52.164;5.518;2023-05-16T00:57:03;22.90;59.10
21540;DHT22;10931;52.164;5.518;2023-05-16T00:59:32;22.90;59.10
21540;DHT22;10931;52.164;5.518;2023-05-16T01:01:58;22.90;59.10
21540;DHT22;10931;52.164;5.518;2023-05-16T01:04:23;22.90;59.10
21540;DHT22;10931;52.164;5.518;2023-05-16T01:06:50;22.90;59.10
21540;DHT22;10931;52.164;5.518;2023-05-16T01:09:19;22.90;59.10
21540;DHT22;10931;52.164;5.518;2023-05-16T01:11:53;22.90;59.20
21540;DHT22;10931;52.164;5.518;2023-05-16T01:14:48;22.90;59.20
21540;DHT22;10931;52.164;5.518;2023-05-16T01:28:34;22.80;59.10
21540;DHT22;10931;52.164;5.518;2023-05-16T01:31:01;22.80;59.20
21540;DHT22;10931;52.164;5.518;2023-05-16T01:33:27;22.80;59.20
21540;DHT22;10931;52.164;5.518;2023-05-16T01:35:59;22.80;59.20
21540;DHT22;10931;52.164;5.518;2023-05-16T01:41:20;22.80;59.20
21540;DHT22;10931;52.164;5.518;2023-05-16T01:43:51;22.70;59.10
21540;DHT22;10931;52.164;5.518;2023-05-16T01:46:23;22.80;59.20
21540;DHT22;10931;52.164;5.518;2023-05-16T01:48:57;22.70;59.20
21540;DHT22;10931;52.164;5.518;2023-05-16T01:51:29;22.70;59.20
21540;DHT22;10931;52.164;5.518;2023-05-16T01:54:00;22.70;59.20
21540;DHT22;10931;52.164;5.518;2023-05-16T01:56:30;22.70;59.20
21540;DHT22;10931;52.164;5.518;2023-05-16T01:58:57;22.70;59.20
21540;DHT22;10931;52.164;5.518;2023-05-16T02:01:34;22.70;59.20
21540;DHT22;10931;52.164;5.518;2023-05-16T02:04:00;22.70;59.20
21540;DHT22;10931;52.164;5.518;2023-05-16T02:06:26;22.70;59.20
21540;DHT22;10931;52.164;5.518;2023-05-16T02:08:52;22.70;59.20
21540;DHT22;10931;52.164;5.518;2023-05-16T02:11:18;22.70;59.20
21540;DHT22;10931;52.164;5.518;2023-05-16T02:13:48;22.70;59.20
21540;DHT22;10931;52.164;5.518;2023-05-16T02:16:15;22.60;59.20
21540;DHT22;10931;52.164;5.518;2023-05-16T02:18:41;22.60;59.50
21540;DHT22;10931;52.164;5.518;2023-05-16T02:24:03;22.60;59.20
21540;DHT22;10931;52.164;5.518;2023-05-16T02:26:31;22.60;59.20
21540;DHT22;10931;52.164;5.518;2023-05-16T02:28:57;22.60;59.20
21540;DHT22;10931;52.164;5.518;2023-05-16T02:31:30;22.60;59.20
21540;DHT22;10931;52.164;5.518;2023-05-16T02:33:57;22.60;59.20
21540;DHT22;10931;52.164;5.518;2023-05-16T02:36:23;22.60;59.20
21540;DHT22;10931;52.164;5.518;2023-05-16T02:38:52;22.60;59.20
21540;DHT22;10931;52.164;5.518;2023-05-16T02:41:17;22.60;59.20
21540;DHT22;10931;52.164;5.518;2023-05-16T02:43:43;22.60;59.20
21540;DHT22;10931;52.164;5.518;2023-05-16T02:46:24;22.60;59.20
21540;DHT22;10931;52.164;5.518;2023-05-16T02:48:50;22.50;59.10
21540;DHT22;10931;52.164;5.518;2023-05-16T02:51:17;22.60;59.20
21540;DHT22;10931;52.164;5.518;2023-05-16T02:53:46;22.60;59.20
21540;DHT22;10931;52.164;5.518;2023-05-16T02:56:12;22.50;59.20
21540;DHT22;10931;52.164;5.518;2023-05-16T02:58:37;22.50;59.10
21540;DHT22;10931;52.164;5.518;2023-05-16T03:01:04;22.50;59.20
21540;DHT22;10931;52.164;5.518;2023-05-16T03:03:30;22.50;59.20
21540;DHT22;10931;52.164;5.518;2023-05-16T03:05:57;22.50;59.10
21540;DHT22;10931;52.164;5.518;2023-05-16T03:08:25;22.50;59.20
21540;DHT22;10931;52.164;5.518;2023-05-16T03:10:51;22.50;59.20
21540;DHT22;10931;52.164;5.518;2023-05-16T03:13:17;22.50;59.20
21540;DHT22;10931;52.164;5.518;2023-05-16T03:15:45;22.50;59.20
21540;DHT22;10931;52.164;5.518;2023-05-16T03:18:10;22.40;59.10
21540;DHT22;10931;52.164;5.518;2023-05-16T03:20:39;22.50;59.20
21540;DHT22;10931;52.164;5.518;2023-05-16T03:23:05;22.40;59.10
21540;DHT22;10931;52.164;5.518;2023-05-16T03:25:33;22.40;59.10
21540;DHT22;10931;52.164;5.518;2023-05-16T03:28:07;22.40;59.10
21540;DHT22;10931;52.164;5.518;2023-05-16T03:30:33;22.40;59.20
21540;DHT22;10931;52.164;5.518;2023-05-16T03:32:59;22.40;59.10
21540;DHT22;10931;52.164;5.518;2023-05-16T03:35:26;22.40;59.20
21540;DHT22;10931;52.164;5.518;2023-05-16T03:37:52;22.30;59.10
21540;DHT22;10931;52.164;5.518;2023-05-16T03:40:17;22.30;59.10
21540;DHT22;10931;52.164;5.518;2023-05-16T03:42:43;22.30;59.10
21540;DHT22;10931;52.164;5.518;2023-05-16T03:45:09;22.30;59.10
21540;DHT22;10931;52.164;5.518;2023-05-16T03:47:35;22.30;59.20
21540;DHT22;10931;52.164;5.518;2023-05-16T03:50:02;22.30;59.20
21540;DHT22;10931;52.164;5.518;2023-05-16T03:52:28;22.30;59.20
21540;DHT22;10931;52.164;5.518;2023-05-16T03:54:54;22.30;59.20
21540;DHT22;10931;52.164;5.518;2023-05-16T03:57:30;22.30;59.20
21540;DHT22;10931;52.164;5.518;2023-05-16T03:59:56;22.20;59.10
21540;DHT22;10931;52.164;5.518;2023-05-16T04:02:25;22.20;59.20
21540;DHT22;10931;52.164;5.518;2023-05-16T04:04:51;22.30;59.20
21540;DHT22;10931;52.164;5.518;2023-05-16T04:07:16;22.20;59.20
21540;DHT22;10931;52.164;5.518;2023-05-16T04:09:45;22.20;59.10
21540;DHT22;10931;52.164;5.518;2023-05-16T04:12:11;22.20;59.20
21540;DHT22;10931;52.164;5.518;2023-05-16T04:14:37;22.20;59.20
21540;DHT22;10931;52.164;5.518;2023-05-16T04:17:07;22.20;59.20
21540;DHT22;10931;52.164;5.518;2023-05-16T04:19:33;22.20;59.20
21540;DHT22;10931;52.164;5.518;2023-05-16T04:21:59;22.20;59.20
21540;DHT22;10931;52.164;5.518;2023-05-16T04:24:25;22.20;59.20
21540;DHT22;10931;52.164;5.518;2023-05-16T04:26:53;22.10;59.20
21540;DHT22;10931;52.164;5.518;2023-05-16T04:29:19;22.10;59.20
21540;DHT22;10931;52.164;5.518;2023-05-16T04:31:46;22.10;59.20
21540;DHT22;10931;52.164;5.518;2023-05-16T04:34:11;22.10;59.20
21540;DHT22;10931;52.164;5.518;2023-05-16T04:36:37;22.10;59.20
21540;DHT22;10931;52.164;5.518;2023-05-16T04:39:03;22.10;59.20
21540;DHT22;10931;52.164;5.518;2023-05-16T04:41:29;22.10;59.20
21540;DHT22;10931;52.164;5.518;2023-05-16T04:43:54;22.10;59.20
21540;DHT22;10931;52.164;5.518;2023-05-16T04:46:20;22.10;59.20
21540;DHT22;10931;52.164;5.518;2023-05-16T04:48:46;22.00;59.20
21540;DHT22;10931;52.164;5.518;2023-05-16T04:51:19;22.00;59.20
21540;DHT22;10931;52.164;5.518;2023-05-16T04:53:44;22.00;59.20
21540;DHT22;10931;52.164;5.518;2023-05-16T04:56:10;22.00;59.20
21540;DHT22;10931;52.164;5.518;2023-05-16T04:58:36;22.00;59.20
21540;DHT22;10931;52.164;5.518;2023-05-16T05:01:02;22.00;59.20
21540;DHT22;10931;52.164;5.518;2023-05-16T05:03:28;22.00;59.20
21540;DHT22;10931;52.164;5.518;2023-05-16T05:05:53;22.00;59.20
21540;DHT22;10931;52.164;5.518;2023-05-16T05:08:21;22.00;59.20
21540;DHT22;10931;52.164;5.518;2023-05-16T05:10:46;22.00;59.20
21540;DHT22;10931;52.164;5.518;2023-05-16T05:13:12;22.00;59.20
21540;DHT22;10931;52.164;5.518;2023-05-16T05:15:38;21.90;59.10
21540;DHT22;10931;52.164;5.518;2023-05-16T05:18:03;22.00;59.20
21540;DHT22;10931;52.164;5.518;2023-05-16T05:20:29;21.90;59.10
21540;DHT22;10931;52.164;5.518;2023-05-16T05:22:55;21.90;59.20
21540;DHT22;10931;52.164;5.518;2023-05-16T05:25:20;21.90;59.10
21540;DHT22;10931;52.164;5.518;2023-05-16T05:27:46;21.90;59.10
21540;DHT22;10931;52.164;5.518;2023-05-16T05:30:12;21.90;59.10
21540;DHT22;10931;52.164;5.518;2023-05-16T05:32:38;21.90;59.10
21540;DHT22;10931;52.164;5.518;2023-05-16T05:35:04;21.90;59.10
21540;DHT22;10931;52.164;5.518;2023-05-16T05:37:30;21.90;59.10
21540;DHT22;10931;52.164;5.518;2023-05-16T05:39:56;21.90;59.10
21540;DHT22;10931;52.164;5.518;2023-05-16T05:42:22;21.90;59.10
21540;DHT22;10931;52.164;5.518;2023-05-16T05:44:47;21.90;59.10
21540;DHT22;10931;52.164;5.518;2023-05-16T05:47:13;21.90;59.10
21540;DHT22;10931;52.164;5.518;2023-05-16T05:49:39;21.80;59.00
21540;DHT22;10931;52.164;5.518;2023-05-16T05:52:05;21.80;59.00
21540;DHT22;10931;52.164;5.518;2023-05-16T05:54:34;21.80;59.00
21540;DHT22;10931;52.164;5.518;2023-05-16T05:56:59;21.80;59.00
21540;DHT22;10931;52.164;5.518;2023-05-16T05:59:28;21.80;59.00
21540;DHT22;10931;52.164;5.518;2023-05-16T06:01:53;21.80;59.00
21540;DHT22;10931;52.164;5.518;2023-05-16T06:04:20;21.80;59.00
21540;DHT22;10931;52.164;5.518;2023-05-16T06:06:45;21.80;58.90
21540;DHT22;10931;52.164;5.518;2023-05-16T06:09:12;21.80;58.90
21540;DHT22;10931;52.164;5.518;2023-05-16T06:11:41;21.80;58.90
21540;DHT22;10931;52.164;5.518;2023-05-16T06:14:07;21.80;58.90
21540;DHT22;10931;52.164;5.518;2023-05-16T06:16:33;21.70;58.90
21540;DHT22;10931;52.164;5.518;2023-05-16T06:19:02;21.80;58.90
21540;DHT22;10931;52.164;5.518;2023-05-16T06:21:28;21.70;58.80
21540;DHT22;10931;52.164;5.518;2023-05-16T06:23:54;21.70;58.80
21540;DHT22;10931;52.164;5.518;2023-05-16T06:26:19;21.70;58.80
21540;DHT22;10931;52.164;5.518;2023-05-16T06:29:04;21.70;58.80
21540;DHT22;10931;52.164;5.518;2023-05-16T06:31:35;21.70;58.80
21540;DHT22;10931;52.164;5.518;2023-05-16T06:34:03;21.70;58.80
21540;DHT22;10931;52.164;5.518;2023-05-16T06:36:32;21.70;58.80
21540;DHT22;10931;52.164;5.518;2023-05-16T06:38:58;21.70;58.80
21540;DHT22;10931;52.164;5.518;2023-05-16T06:41:24;21.70;58.90
21540;DHT22;10931;52.164;5.518;2023-05-16T06:43:50;21.70;58.80
21540;DHT22;10931;52.164;5.518;2023-05-16T06:46:42;21.70;58.80
21540;DHT22;10931;52.164;5.518;2023-05-16T06:49:51;21.60;58.70
21540;DHT22;10931;52.164;5.518;2023-05-16T06:53:00;21.70;58.80
21540;DHT22;10931;52.164;5.518;2023-05-16T06:58:38;21.60;58.70
21540;DHT22;10931;52.164;5.518;2023-05-16T07:04:27;21.60;58.80
21540;DHT22;10931;52.164;5.518;2023-05-16T07:10:39;21.60;58.80
21540;DHT22;10931;52.164;5.518;2023-05-16T07:13:11;21.60;58.70
21540;DHT22;10931;52.164;5.518;2023-05-16T07:15:39;21.60;58.70
21540;DHT22;10931;52.164;5.518;2023-05-16T07:18:07;21.60;58.80
21540;DHT22;10931;52.164;5.518;2023-05-16T07:20:33;21.60;58.80
21540;DHT22;10931;52.164;5.518;2023-05-16T07:22:59;21.60;58.80
21540;DHT22;10931;52.164;5.518;2023-05-16T07:25:25;21.60;58.70
21540;DHT22;10931;52.164;5.518;2023-05-16T07:27:51;21.60;58.70
21540;DHT22;10931;52.164;5.518;2023-05-16T07:30:17;21.60;58.70
21540;DHT22;10931;52.164;5.518;2023-05-16T07:32:49;21.60;58.70
21540;DHT22;10931;52.164;5.518;2023-05-16T07:35:15;21.60;58.70
21540;DHT22;10931;52.164;5.518;2023-05-16T07:37:41;21.50;58.70
21540;DHT22;10931;52.164;5.518;2023-05-16T07:40:09;21.60;58.70
21540;DHT22;10931;52.164;5.518;2023-05-16T07:42:34;21.60;58.70
21540;DHT22;10931;52.164;5.518;2023-05-16T07:45:00;21.60;58.70
21540;DHT22;10931;52.164;5.518;2023-05-16T07:47:33;21.50;59.30
21540;DHT22;10931;52.164;5.518;2023-05-16T07:49:58;21.50;58.70
21540;DHT22;10931;52.164;5.518;2023-05-16T07:52:24;21.60;58.70
21540;DHT22;10931;52.164;5.518;2023-05-16T07:54:52;21.60;58.70
21540;DHT22;10931;52.164;5.518;2023-05-16T07:57:17;21.60;58.70
21540;DHT22;10931;52.164;5.518;2023-05-16T07:59:43;21.50;58.70
21540;DHT22;10931;52.164;5.518;2023-05-16T08:02:11;21.50;58.70
21540;DHT22;10931;52.164;5.518;2023-05-16T08:04:37;21.50;58.60
21540;DHT22;10931;52.164;5.518;2023-05-16T08:07:03;21.50;58.60
21540;DHT22;10931;52.164;5.518;2023-05-16T08:09:29;21.50;58.60
21540;DHT22;10931;52.164;5.518;2023-05-16T08:11:57;21.50;58.50
21540;DHT22;10931;52.164;5.518;2023-05-16T08:14:30;21.50;58.50
21540;DHT22;10931;52.164;5.518;2023-05-16T08:17:00;21.50;58.50
21540;DHT22;10931;52.164;5.518;2023-05-16T08:19:26;21.50;58.50
21540;DHT22;10931;52.164;5.518;2023-05-16T08:21:52;21.50;58.50
21540;DHT22;10931;52.164;5.518;2023-05-16T08:24:17;21.50;58.60
21540;DHT22;10931;52.164;5.518;2023-05-16T08:26:43;21.50;58.60
21540;DHT22;10931;52.164;5.518;2023-05-16T08:29:09;21.50;58.60
21540;DHT22;10931;52.164;5.518;2023-05-16T08:31:34;21.50;58.60
21540;DHT22;10931;52.164;5.518;2023-05-16T08:34:00;21.50;58.60
21540;DHT22;10931;52.164;5.518;2023-05-16T08:36:27;21.50;58.60
21540;DHT22;10931;52.164;5.518;2023-05-16T08:38:54;21.50;58.60
21540;DHT22;10931;52.164;5.518;2023-05-16T08:41:20;21.50;58.60
21540;DHT22;10931;52.164;5.518;2023-05-16T08:43:46;21.50;58.60
21540;DHT22;10931;52.164;5.518;2023-05-16T08:46:15;21.50;58.60
21540;DHT22;10931;52.164;5.518;2023-05-16T08:48:44;21.50;58.60
21540;DHT22;10931;52.164;5.518;2023-05-16T08:51:10;21.50;58.60
21540;DHT22;10931;52.164;5.518;2023-05-16T08:53:39;21.50;58.50
21540;DHT22;10931;52.164;5.518;2023-05-16T08:56:08;21.50;58.50
21540;DHT22;10931;52.164;5.518;2023-05-16T08:58:35;21.50;58.50
21540;DHT22;10931;52.164;5.518;2023-05-16T09:01:05;21.50;58.50
21540;DHT22;10931;52.164;5.518;2023-05-16T09:03:35;21.50;58.40
21540;DHT22;10931;52.164;5.518;2023-05-16T09:06:05;21.60;58.50
21540;DHT22;10931;52.164;5.518;2023-05-16T09:08:33;21.50;58.40
21540;DHT22;10931;52.164;5.518;2023-05-16T09:11:02;21.50;58.40
21540;DHT22;10931;52.164;5.518;2023-05-16T09:13:28;21.50;58.40
21540;DHT22;10931;52.164;5.518;2023-05-16T09:16:14;21.50;58.40
21540;DHT22;10931;52.164;5.518;2023-05-16T09:18:54;21.50;58.40
21540;DHT22;10931;52.164;5.518;2023-05-16T09:21:25;21.50;58.40
21540;DHT22;10931;52.164;5.518;2023-05-16T09:23:54;21.50;58.40
21540;DHT22;10931;52.164;5.518;2023-05-16T09:26:20;21.50;58.40
21540;DHT22;10931;52.164;5.518;2023-05-16T09:28:53;21.50;58.40
21540;DHT22;10931;52.164;5.518;2023-05-16T09:31:20;21.50;58.30
21540;DHT22;10931;52.164;5.518;2023-05-16T09:33:47;21.50;58.40
21540;DHT22;10931;52.164;5.518;2023-05-16T09:36:14;21.50;58.30
21540;DHT22;10931;52.164;5.518;2023-05-16T09:38:43;21.50;58.30
21540;DHT22;10931;52.164;5.518;2023-05-16T09:41:11;21.50;58.30
21540;DHT22;10931;52.164;5.518;2023-05-16T09:43:39;21.60;58.30
21540;DHT22;10931;52.164;5.518;2023-05-16T09:46:05;21.50;58.20
21540;DHT22;10931;52.164;5.518;2023-05-16T09:48:34;21.50;58.20
21540;DHT22;10931;52.164;5.518;2023-05-16T09:50:59;21.50;58.20
21540;DHT22;10931;52.164;5.518;2023-05-16T09:53:37;21.60;58.20
21540;DHT22;10931;52.164;5.518;2023-05-16T09:56:10;21.60;58.20
21540;DHT22;10931;52.164;5.518;2023-05-16T09:58:43;21.50;58.20
21540;DHT22;10931;52.164;5.518;2023-05-16T10:01:10;21.60;58.10
21540;DHT22;10931;52.164;5.518;2023-05-16T10:03:40;21.60;58.10
21540;DHT22;10931;52.164;5.518;2023-05-16T10:06:06;21.60;58.10
21540;DHT22;10931;52.164;5.518;2023-05-16T10:08:34;21.60;58.00
21540;DHT22;10931;52.164;5.518;2023-05-16T10:11:04;21.60;58.00
21540;DHT22;10931;52.164;5.518;2023-05-16T10:13:32;21.60;58.00
21540;DHT22;10931;52.164;5.518;2023-05-16T10:15:59;21.60;58.00
21540;DHT22;10931;52.164;5.518;2023-05-16T10:18:30;21.60;58.00
21540;DHT22;10931;52.164;5.518;2023-05-16T10:21:08;21.60;58.00
21540;DHT22;10931;52.164;5.518;2023-05-16T10:23:37;21.60;57.90
21540;DHT22;10931;52.164;5.518;2023-05-16T10:26:06;21.60;57.90
21540;DHT22;10931;52.164;5.518;2023-05-16T10:28:41;21.70;57.90
21540;DHT22;10931;52.164;5.518;2023-05-16T10:31:10;21.60;57.90
21540;DHT22;10931;52.164;5.518;2023-05-16T10:33:44;21.60;57.90
21540;DHT22;10931;52.164;5.518;2023-05-16T10:36:11;21.70;57.90
21540;DHT22;10931;52.164;5.518;2023-05-16T10:38:38;21.70;57.90
21540;DHT22;10931;52.164;5.518;2023-05-16T10:41:07;21.70;57.80
21540;DHT22;10931;52.164;5.518;2023-05-16T10:43:34;21.70;57.80
21540;DHT22;10931;52.164;5.518;2023-05-16T10:46:07;21.70;57.80
21540;DHT22;10931;52.164;5.518;2023-05-16T10:48:40;21.70;57.80
21540;DHT22;10931;52.164;5.518;2023-05-16T10:53:50;21.70;57.70
21540;DHT22;10931;52.164;5.518;2023-05-16T10:56:23;21.70;57.70
21540;DHT22;10931;52.164;5.518;2023-05-16T10:58:49;21.70;57.70
21540;DHT22;10931;52.164;5.518;2023-05-16T11:01:25;21.70;57.60
21540;DHT22;10931;52.164;5.518;2023-05-16T11:09:04;21.80;57.70
21540;DHT22;10931;52.164;5.518;2023-05-16T11:20:16;21.80;57.60
21540;DHT22;10931;52.164;5.518;2023-05-16T11:25:50;21.80;57.60
21540;DHT22;10931;52.164;5.518;2023-05-16T11:28:19;21.80;57.60
21540;DHT22;10931;52.164;5.518;2023-05-16T11:30:52;21.80;57.60
21540;DHT22;10931;52.164;5.518;2023-05-16T11:33:38;21.80;57.50
21540;DHT22;10931;52.164;5.518;2023-05-16T11:36:12;21.80;57.50
21540;DHT22;10931;52.164;5.518;2023-05-16T11:38:39;21.80;57.50
21540;DHT22;10931;52.164;5.518;2023-05-16T11:41:14;21.80;57.50
21540;DHT22;10931;52.164;5.518;2023-05-16T11:43:44;21.80;57.50
21540;DHT22;10931;52.164;5.518;2023-05-16T11:46:11;21.80;57.50
21540;DHT22;10931;52.164;5.518;2023-05-16T11:48:37;21.80;57.40
21540;DHT22;10931;52.164;5.518;2023-05-16T11:51:03;21.90;57.50
21540;DHT22;10931;52.164;5.518;2023-05-16T11:53:49;21.90;57.50
21540;DHT22;10931;52.164;5.518;2023-05-16T11:56:19;21.90;57.50
21540;DHT22;10931;52.164;5.518;2023-05-16T11:58:49;21.90;57.50
21540;DHT22;10931;52.164;5.518;2023-05-16T12:01:32;21.90;57.40
21540;DHT22;10931;52.164;5.518;2023-05-16T12:03:58;21.90;57.40
21540;DHT22;10931;52.164;5.518;2023-05-16T12:06:32;21.80;57.10
21540;DHT22;10931;52.164;5.518;2023-05-16T12:08:58;21.90;57.40
21540;DHT22;10931;52.164;5.518;2023-05-16T12:11:26;21.90;57.40
21540;DHT22;10931;52.164;5.518;2023-05-16T12:13:54;21.90;57.40
21540;DHT22;10931;52.164;5.518;2023-05-16T12:16:20;21.80;57.40
21540;DHT22;10931;52.164;5.518;2023-05-16T12:18:46;21.90;57.40
21540;DHT22;10931;52.164;5.518;2023-05-16T12:21:14;21.90;57.40
21540;DHT22;10931;52.164;5.518;2023-05-16T12:23:43;21.90;57.40
21540;DHT22;10931;52.164;5.518;2023-05-16T12:26:09;21.90;57.40
21540;DHT22;10931;52.164;5.518;2023-05-16T12:28:39;21.90;57.40
21540;DHT22;10931;52.164;5.518;2023-05-16T12:31:18;21.90;57.40
21540;DHT22;10931;52.164;5.518;2023-05-16T12:33:51;21.90;57.50
21540;DHT22;10931;52.164;5.518;2023-05-16T12:36:19;21.90;57.40
21540;DHT22;10931;52.164;5.518;2023-05-16T12:38:53;21.90;57.40
21540;DHT22;10931;52.164;5.518;2023-05-16T12:41:22;21.90;57.40
21540;DHT22;10931;52.164;5.518;2023-05-16T12:43:51;21.90;57.40
21540;DHT22;10931;52.164;5.518;2023-05-16T12:46:43;21.90;57.40
21540;DHT22;10931;52.164;5.518;2023-05-16T12:49:58;21.90;57.50
21540;DHT22;10931;52.164;5.518;2023-05-16T12:52:28;21.90;57.50
21540;DHT22;10931;52.164;5.518;2023-05-16T12:54:56;21.90;57.50
21540;DHT22;10931;52.164;5.518;2023-05-16T13:00:28;22.00;57.50
21540;DHT22;10931;52.164;5.518;2023-05-16T13:03:02;22.00;57.50
21540;DHT22;10931;52.164;5.518;2023-05-16T13:05:40;22.00;57.60
21540;DHT22;10931;52.164;5.518;2023-05-16T13:08:09;22.00;57.60
21540;DHT22;10931;52.164;5.518;2023-05-16T13:10:39;22.00;57.60
21540;DHT22;10931;52.164;5.518;2023-05-16T13:13:12;22.00;57.60
21540;DHT22;10931;52.164;5.518;2023-05-16T13:16:01;22.00;57.60
21540;DHT22;10931;52.164;5.518;2023-05-16T13:18:34;22.00;57.60
21540;DHT22;10931;52.164;5.518;2023-05-16T13:21:21;22.00;57.60
21540;DHT22;10931;52.164;5.518;2023-05-16T13:24:10;22.00;57.60
21540;DHT22;10931;52.164;5.518;2023-05-16T13:26:43;22.00;57.60
21540;DHT22;10931;52.164;5.518;2023-05-16T13:29:17;22.00;57.60
21540;DHT22;10931;52.164;5.518;2023-05-16T13:31:45;22.00;57.60
21540;DHT22;10931;52.164;5.518;2023-05-16T13:34:11;22.00;57.60
21540;DHT22;10931;52.164;5.518;2023-05-16T13:36:47;22.00;57.60
21540;DHT22;10931;52.164;5.518;2023-05-16T13:39:44;22.00;57.60
21540;DHT22;10931;52.164;5.518;2023-05-16T13:42:10;22.00;57.60
21540;DHT22;10931;52.164;5.518;2023-05-16T13:44:43;22.00;57.60
21540;DHT22;10931;52.164;5.518;2023-05-16T13:47:09;22.00;57.60
21540;DHT22;10931;52.164;5.518;2023-05-16T13:49:34;22.00;57.60
21540;DHT22;10931;52.164;5.518;2023-05-16T13:52:03;22.10;57.60
21540;DHT22;10931;52.164;5.518;2023-05-16T13:54:32;22.10;57.60
21540;DHT22;10931;52.164;5.518;2023-05-16T13:56:58;22.10;57.60
21540;DHT22;10931;52.164;5.518;2023-05-16T13:59:26;22.10;57.60
21540;DHT22;10931;52.164;5.518;2023-05-16T14:01:51;22.10;57.60
21540;DHT22;10931;52.164;5.518;2023-05-16T14:04:20;22.10;57.60
21540;DHT22;10931;52.164;5.518;2023-05-16T14:06:46;22.10;57.60
21540;DHT22;10931;52.164;5.518;2023-05-16T14:09:14;22.00;57.50
21540;DHT22;10931;52.164;5.518;2023-05-16T14:11:40;22.10;57.60
21540;DHT22;10931;52.164;5.518;2023-05-16T14:14:06;22.00;57.50
21540;DHT22;10931;52.164;5.518;2023-05-16T14:16:31;22.10;57.60
21540;DHT22;10931;52.164;5.518;2023-05-16T14:18:57;22.10;57.60
21540;DHT22;10931;52.164;5.518;2023-05-16T14:21:30;22.10;57.60
21540;DHT22;10931;52.164;5.518;2023-05-16T14:23:59;22.10;57.60
21540;DHT22;10931;52.164;5.518;2023-05-16T14:26:32;22.10;57.60
21540;DHT22;10931;52.164;5.518;2023-05-16T14:28:58;22.10;57.60
21540;DHT22;10931;52.164;5.518;2023-05-16T14:31:26;22.10;57.60
21540;DHT22;10931;52.164;5.518;2023-05-16T14:34:04;22.10;57.50
21540;DHT22;10931;52.164;5.518;2023-05-16T14:36:30;22.10;57.50
21540;DHT22;10931;52.164;5.518;2023-05-16T14:38:56;22.10;57.60
21540;DHT22;10931;52.164;5.518;2023-05-16T14:41:33;22.10;57.50
21540;DHT22;10931;52.164;5.518;2023-05-16T14:43:58;22.10;57.60
21540;DHT22;10931;52.164;5.518;2023-05-16T14:46:26;22.10;57.50
21540;DHT22;10931;52.164;5.518;2023-05-16T14:48:55;22.10;57.60
21540;DHT22;10931;52.164;5.518;2023-05-16T14:51:33;22.10;57.50
21540;DHT22;10931;52.164;5.518;2023-05-16T14:54:01;22.10;57.60
21540;DHT22;10931;52.164;5.518;2023-05-16T14:56:38;22.10;57.50
21540;DHT22;10931;52.164;5.518;2023-05-16T14:59:03;22.10;57.50
21540;DHT22;10931;52.164;5.518;2023-05-16T15:01:29;22.10;57.60
21540;DHT22;10931;52.164;5.518;2023-05-16T15:03:55;22.10;57.60
21540;DHT22;10931;52.164;5.518;2023-05-16T15:06:20;22.10;57.60
21540;DHT22;10931;52.164;5.518;2023-05-16T15:08:46;22.10;57.60
21540;DHT22;10931;52.164;5.518;2023-05-16T15:11:17;22.10;57.60
21540;DHT22;10931;52.164;5.518;2023-05-16T15:14:05;22.10;57.60
21540;DHT22;10931;52.164;5.518;2023-05-16T15:16:42;22.10;57.60
21540;DHT22;10931;52.164;5.518;2023-05-16T15:19:08;22.10;57.60
21540;DHT22;10931;52.164;5.518;2023-05-16T15:21:33;22.10;57.50
21540;DHT22;10931;52.164;5.518;2023-05-16T15:23:59;22.10;57.50
21540;DHT22;10931;52.164;5.518;2023-05-16T15:26:25;22.10;57.50
21540;DHT22;10931;52.164;5.518;2023-05-16T15:28:51;22.10;57.60
21540;DHT22;10931;52.164;5.518;2023-05-16T15:31:20;22.10;57.50
21540;DHT22;10931;52.164;5.518;2023-05-16T15:33:45;22.10;57.50
21540;DHT22;10931;52.164;5.518;2023-05-16T15:36:12;22.10;57.50
21540;DHT22;10931;52.164;5.518;2023-05-16T15:38:38;22.10;57.50
21540;DHT22;10931;52.164;5.518;2023-05-16T15:41:08;22.10;57.50
21540;DHT22;10931;52.164;5.518;2023-05-16T15:43:34;22.10;57.50
21540;DHT22;10931;52.164;5.518;2023-05-16T15:46:00;22.10;57.50
21540;DHT22;10931;52.164;5.518;2023-05-16T15:48:26;22.10;57.60
21540;DHT22;10931;52.164;5.518;2023-05-16T15:50:51;22.10;57.50
21540;DHT22;10931;52.164;5.518;2023-05-16T15:53:17;22.10;57.50
21540;DHT22;10931;52.164;5.518;2023-05-16T15:55:43;22.10;57.50
21540;DHT22;10931;52.164;5.518;2023-05-16T15:58:08;22.10;57.90
21540;DHT22;10931;52.164;5.518;2023-05-16T16:00:37;22.10;57.50
21540;DHT22;10931;52.164;5.518;2023-05-16T16:03:13;22.10;57.50
21540;DHT22;10931;52.164;5.518;2023-05-16T16:05:38;22.00;57.40
21540;DHT22;10931;52.164;5.518;2023-05-16T16:08:06;22.10;57.50
21540;DHT22;10931;52.164;5.518;2023-05-16T16:10:32;22.10;57.50
21540;DHT22;10931;52.164;5.518;2023-05-16T16:13:04;22.10;57.50
21540;DHT22;10931;52.164;5.518;2023-05-16T16:15:33;22.10;57.50
21540;DHT22;10931;52.164;5.518;2023-05-16T16:18:00;22.10;57.50
21540;DHT22;10931;52.164;5.518;2023-05-16T16:20:54;22.00;57.40
21540;DHT22;10931;52.164;5.518;2023-05-16T16:23:50;22.00;57.40
21540;DHT22;10931;52.164;5.518;2023-05-16T16:26:16;22.10;57.50
21540;DHT22;10931;52.164;5.518;2023-05-16T16:28:42;22.10;57.50
21540;DHT22;10931;52.164;5.518;2023-05-16T16:31:14;22.00;57.40